This is the latest recevied weather packets stored in our database for station/object IW1RID-3. If no packets are shown the sender has not sent any weather packets the latest 10 day(s).
| Time | Temp. | Humidity | Pressure | Rain* | Wind** | Luminosity | Snow |
|---|---|---|---|---|---|---|---|
| 1787838500 | 31.67° C | 57% | 1073.7 hPa | - | - | - | - |
| 1787837297 | 31.67° C | 56% | 1073.5 hPa | - | - | - | - |
| 1787836092 | 32.22° C | 55% | 1073.2 hPa | - | - | - | - |
| 1787834886 | 31.67° C | 54% | 1073.3 hPa | - | - | - | - |
| 1787834800 | 32.22° C | 53% | 1073.3 hPa | - | - | - | - |
| 1787833595 | 33.33° C | 51% | 1073.2 hPa | - | - | - | - |
| 1787832391 | 33.33° C | 49% | 1073.2 hPa | - | - | - | - |
| 1787831186 | 32.78° C | 47% | 1072.9 hPa | - | - | - | - |
| 1787828776 | 32.22° C | 48% | 1073.8 hPa | - | - | - | - |
| 1787827571 | 31.67° C | 50% | 1074 hPa | - | - | - | - |
| 1787826366 | 31.67° C | 51% | 1073.7 hPa | - | - | - | - |
| 1787825162 | 30.56° C | 53% | 1073.7 hPa | - | - | - | - |
| 1787823957 | 31.11° C | 52% | 1073.7 hPa | - | - | - | - |
| 1787822752 | 30.56° C | 51% | 1073.6 hPa | - | - | - | - |
| 1787821547 | 30.56° C | 44% | 1073.3 hPa | - | - | - | - |
| 1787820342 | 28.89° C | 44% | 1073.1 hPa | - | - | - | - |
| 1787819138 | 27.78° C | 47% | 1072.9 hPa | - | - | - | - |
| 1787817933 | 26.67° C | 51% | 1072.6 hPa | - | - | - | - |
| 1787816729 | 25.56° C | 54% | 1072.5 hPa | - | - | - | - |
| 1787815523 | 24.44° C | 54% | 1072.7 hPa | - | - | - | - |
| 1787814318 | 23.33° C | 58% | 1073 hPa | - | - | - | - |
| 1787813113 | 22.22° C | 60% | 1073.1 hPa | - | - | - | - |
| 1787811907 | 21.67° C | 62% | 1073.1 hPa | - | - | - | - |
| 1787810703 | 21.67° C | 60% | 1073.2 hPa | - | - | - | - |
| 1787809497 | 21.11° C | 62% | 1073 hPa | - | - | - | - |
* Rain since midnight (hover to see other rain measurements)
** Current wind speed in m/s (hover to see current wind gust speed)